createdAt,value
2022-11-25T00:00:16.348Z,9.00
2022-11-25T00:03:18.218Z,9.20
2022-11-25T00:06:23.917Z,9.10
2022-11-25T00:09:25.438Z,9.10
2022-11-25T00:12:27.001Z,10.50
2022-11-25T00:15:28.583Z,9.00
2022-11-25T00:18:31.064Z,9.10
2022-11-25T00:21:34.219Z,9.20
2022-11-25T00:24:36.019Z,8.90
2022-11-25T00:27:37.858Z,9.10
2022-11-25T00:30:39.470Z,9.60
2022-11-25T00:33:41.489Z,9.00
2022-11-25T00:36:43.190Z,9.20
2022-11-25T00:39:44.842Z,9.30
2022-11-25T00:43:05.196Z,9.90
2022-11-25T00:46:06.803Z,8.70
2022-11-25T00:49:09.036Z,9.50
2022-11-25T00:52:14.747Z,9.60
2022-11-25T00:55:16.319Z,9.10
2022-11-25T00:58:17.878Z,9.50
2022-11-25T01:01:19.609Z,9.30
2022-11-25T01:04:21.299Z,9.40
2022-11-25T01:07:23.312Z,10.90
2022-11-25T01:10:24.896Z,10.50
2022-11-25T01:13:30.987Z,9.20
2022-11-25T01:16:32.962Z,9.40
2022-11-25T01:19:38.281Z,11.40
2022-11-25T01:22:39.823Z,9.20
2022-11-25T01:25:41.535Z,9.20
2022-11-25T01:28:43.343Z,9.10
2022-11-25T01:31:46.211Z,9.10
2022-11-25T01:34:48.046Z,10.30
2022-11-25T01:37:50.806Z,9.20
2022-11-25T01:40:52.370Z,9.00
2022-11-25T01:44:16.315Z,9.20
2022-11-25T01:47:24.382Z,9.40
2022-11-25T01:50:27.454Z,9.60
2022-11-25T01:53:29.060Z,9.40
2022-11-25T01:56:37.043Z,9.20
2022-11-25T01:59:44.400Z,9.10
2022-11-25T02:02:49.165Z,9.50
2022-11-25T02:05:55.605Z,9.40
2022-11-25T02:09:03.809Z,9.50
2022-11-25T02:12:06.058Z,9.70
2022-11-25T02:15:08.265Z,9.60
2022-11-25T02:18:09.788Z,9.70
2022-11-25T02:21:13.744Z,9.70
2022-11-25T02:24:40.268Z,9.50
2022-11-25T02:27:45.260Z,9.70
2022-11-25T02:30:46.962Z,9.40
2022-11-25T02:33:48.890Z,9.90
2022-11-25T02:36:51.411Z,9.70
2022-11-25T02:39:54.123Z,9.70
2022-11-25T02:42:59.275Z,10.00
2022-11-25T02:46:04.663Z,9.90
2022-11-25T02:49:09.420Z,9.80
2022-11-25T02:52:11.890Z,10.00
2022-11-25T02:55:13.420Z,10.00
2022-11-25T02:58:15.763Z,10.00
2022-11-25T03:01:18.056Z,10.30
2022-11-25T03:04:19.778Z,10.20
2022-11-25T03:07:21.518Z,10.40
2022-11-25T03:10:23.425Z,10.40
2022-11-25T03:13:25.015Z,9.90
2022-11-25T03:16:26.666Z,10.00
2022-11-25T03:19:37.251Z,9.90
2022-11-25T03:22:39.692Z,9.90
2022-11-25T03:25:41.211Z,10.10
2022-11-25T03:28:42.831Z,10.00
2022-11-25T03:31:44.517Z,10.10
2022-11-25T03:34:46.338Z,10.60
2022-11-25T03:37:47.907Z,9.80
2022-11-25T03:40:50.215Z,10.10
2022-11-25T03:43:51.778Z,10.10
2022-11-25T03:46:53.433Z,9.60
2022-11-25T03:49:55.010Z,9.70
2022-11-25T03:52:56.535Z,12.30
2022-11-25T03:55:58.127Z,9.90
2022-11-25T03:58:59.669Z,11.90
2022-11-25T04:02:01.551Z,9.80
2022-11-25T04:05:05.325Z,9.70
2022-11-25T04:08:06.986Z,9.90
2022-11-25T04:11:08.555Z,9.70
2022-11-25T04:14:10.193Z,9.70
2022-11-25T04:17:11.819Z,9.60
2022-11-25T04:20:14.663Z,9.80
2022-11-25T04:23:16.259Z,9.90
2022-11-25T04:26:17.786Z,9.50
2022-11-25T04:29:19.742Z,10.10
2022-11-25T04:32:21.355Z,9.80
2022-11-25T04:35:23.306Z,9.70
2022-11-25T04:38:24.805Z,9.80
2022-11-25T04:41:26.339Z,9.70
2022-11-25T04:44:27.870Z,9.60
2022-11-25T04:47:30.397Z,9.80
2022-11-25T04:50:31.982Z,9.70
2022-11-25T04:53:33.519Z,9.80
2022-11-25T04:56:35.103Z,9.90
2022-11-25T04:59:39.687Z,10.00
2022-11-25T05:02:41.807Z,9.90
2022-11-25T05:05:43.474Z,9.80
2022-11-25T05:08:48.196Z,9.90
2022-11-25T05:11:49.787Z,9.50
2022-11-25T05:14:51.397Z,9.70
2022-11-25T05:17:53.028Z,9.70
2022-11-25T05:20:54.550Z,9.90
2022-11-25T05:23:56.339Z,9.70
2022-11-25T05:26:57.996Z,9.70
2022-11-25T05:29:59.739Z,9.90
2022-11-25T05:33:01.303Z,11.00
2022-11-25T05:36:04.411Z,9.70
2022-11-25T05:39:06.150Z,9.70
2022-11-25T05:42:07.753Z,9.60
2022-11-25T05:45:09.672Z,9.70
2022-11-25T05:48:11.311Z,9.50
2022-11-25T05:51:12.870Z,9.50
2022-11-25T05:54:14.470Z,9.50
2022-11-25T05:57:16.193Z,9.40
2022-11-25T06:00:22.121Z,9.30
2022-11-25T06:03:28.930Z,9.60
2022-11-25T06:06:31.966Z,9.00
2022-11-25T06:09:33.738Z,9.40
2022-11-25T06:12:35.298Z,9.50
2022-11-25T06:15:44.987Z,9.50
2022-11-25T06:18:46.735Z,9.60
2022-11-25T06:21:48.653Z,9.30
2022-11-25T06:24:57.539Z,9.50
2022-11-25T06:28:13.663Z,9.70
2022-11-25T06:31:17.815Z,10.00
2022-11-25T06:34:19.429Z,9.30
2022-11-25T06:37:20.994Z,9.30
2022-11-25T06:40:22.513Z,9.40
2022-11-25T06:43:24.118Z,9.50
2022-11-25T06:46:25.789Z,9.30
2022-11-25T06:49:29.083Z,9.60
2022-11-25T06:52:31.735Z,9.40
2022-11-25T06:55:33.263Z,8.30
2022-11-25T06:58:36.869Z,9.60
2022-11-25T07:01:38.507Z,9.30
2022-11-25T07:04:40.674Z,9.20
2022-11-25T07:07:42.261Z,9.40
2022-11-25T07:10:43.879Z,10.50
2022-11-25T07:13:46.196Z,9.70
2022-11-25T07:16:47.906Z,9.00
2022-11-25T07:19:49.433Z,9.60
2022-11-25T07:22:50.958Z,9.50
2022-11-25T07:25:52.604Z,9.40
2022-11-25T07:28:55.515Z,11.50
2022-11-25T07:31:57.051Z,9.70
2022-11-25T07:34:58.621Z,9.70
2022-11-25T07:38:00.198Z,9.50
2022-11-25T07:41:15.582Z,9.30
2022-11-25T07:44:17.451Z,9.20
2022-11-25T07:47:19.380Z,8.90
2022-11-25T07:50:23.461Z,9.10
2022-11-25T07:53:25.028Z,9.10
2022-11-25T07:56:27.667Z,9.20
2022-11-25T07:59:29.467Z,9.00
2022-11-25T08:02:31.153Z,10.60
2022-11-25T08:05:33.700Z,9.20
2022-11-25T08:08:37.266Z,9.00
2022-11-25T08:11:39.708Z,9.50
2022-11-25T08:14:41.258Z,9.40
2022-11-25T08:17:42.844Z,9.30
2022-11-25T08:20:44.599Z,9.40
2022-11-25T08:23:48.830Z,9.40
2022-11-25T08:26:51.272Z,9.30
2022-11-25T08:29:53.017Z,9.40
2022-11-25T08:32:54.527Z,9.30
2022-11-25T08:35:56.360Z,9.50
2022-11-25T08:39:00.346Z,9.20
2022-11-25T08:42:04.423Z,9.40
2022-11-25T08:45:07.643Z,10.10
2022-11-25T08:48:09.360Z,9.50
2022-11-25T08:51:15.341Z,9.40
2022-11-25T08:54:17.056Z,9.30
2022-11-25T08:57:18.670Z,9.30
2022-11-25T09:00:21.231Z,9.70
2022-11-25T09:03:22.850Z,9.40
2022-11-25T09:06:27.246Z,9.50
2022-11-25T09:09:28.813Z,9.20
2022-11-25T09:12:30.579Z,9.20
2022-11-25T09:15:32.864Z,9.50
2022-11-25T09:18:36.886Z,9.40
2022-11-25T09:21:38.442Z,9.30
2022-11-25T09:24:41.618Z,11.60
2022-11-25T09:27:43.233Z,9.60
2022-11-25T09:30:44.785Z,9.50
2022-11-25T09:33:46.416Z,9.70
2022-11-25T09:36:47.969Z,9.80
2022-11-25T09:39:52.539Z,9.70
2022-11-25T09:43:45.298Z,9.70
2022-11-25T09:47:14.253Z,9.70
2022-11-25T09:50:40.197Z,10.00
2022-11-25T09:53:46.626Z,9.90
2022-11-25T09:56:55.755Z,9.70
2022-11-25T10:00:17.937Z,10.00
2022-11-25T10:03:30.000Z,10.30
2022-11-25T10:06:42.998Z,10.10
2022-11-25T10:09:44.578Z,10.20
2022-11-25T10:12:48.799Z,10.30
2022-11-25T10:15:50.926Z,10.70
2022-11-25T10:19:04.639Z,10.30
2022-11-25T10:22:32.127Z,9.90
2022-11-25T10:25:39.388Z,10.60
2022-11-25T10:28:56.675Z,10.90
2022-11-25T10:32:22.764Z,10.40
2022-11-25T10:35:31.347Z,10.60
2022-11-25T10:38:41.925Z,10.80
2022-11-25T10:41:52.937Z,10.60
2022-11-25T10:44:57.369Z,10.60
2022-11-25T10:48:44.176Z,10.50
2022-11-25T10:51:48.106Z,10.60
2022-11-25T10:54:57.710Z,10.20
2022-11-25T10:58:19.287Z,10.60
2022-11-25T11:01:22.720Z,10.40
2022-11-25T11:04:24.328Z,10.30
2022-11-25T11:07:29.575Z,10.30
2022-11-25T11:10:31.183Z,11.10
2022-11-25T11:13:33.207Z,10.80
2022-11-25T11:16:40.651Z,10.90
2022-11-25T11:19:42.395Z,10.60
2022-11-25T11:23:09.288Z,10.80
2022-11-25T11:26:25.707Z,10.60
2022-11-25T11:29:27.258Z,11.00
2022-11-25T11:32:29.344Z,12.70
2022-11-25T11:35:55.516Z,10.90
2022-11-25T11:39:08.262Z,11.20
2022-11-25T11:42:32.165Z,11.10
2022-11-25T11:45:42.331Z,11.40
2022-11-25T11:49:24.007Z,11.20
2022-11-25T11:52:49.931Z,11.30
2022-11-25T11:56:26.767Z,11.20
2022-11-25T11:59:33.194Z,11.50
2022-11-25T12:02:51.751Z,11.40
2022-11-25T12:05:55.959Z,11.20
2022-11-25T12:09:15.627Z,11.50
2022-11-25T12:12:21.823Z,11.80
2022-11-25T12:16:09.043Z,11.40
2022-11-25T12:19:27.984Z,11.20
2022-11-25T12:22:37.867Z,11.20
2022-11-25T12:25:42.047Z,11.70
2022-11-25T12:29:11.569Z,11.60
2022-11-25T12:32:28.160Z,11.70
2022-11-25T12:35:46.208Z,11.80
2022-11-25T12:39:04.917Z,13.50
2022-11-25T12:42:15.464Z,11.70
2022-11-25T12:45:24.220Z,11.60
2022-11-25T12:48:25.893Z,11.60
2022-11-25T12:51:53.984Z,11.40
2022-11-25T12:55:21.451Z,11.70
2022-11-25T12:58:45.221Z,12.20
2022-11-25T13:01:52.492Z,11.80
2022-11-25T13:05:40.463Z,11.70
2022-11-25T13:09:13.584Z,11.90
2022-11-25T13:12:36.423Z,11.80
2022-11-25T13:15:44.347Z,11.80
2022-11-25T13:18:47.092Z,11.90
2022-11-25T13:22:00.303Z,12.10
2022-11-25T13:25:02.218Z,11.80
2022-11-25T13:28:06.310Z,12.20
2022-11-25T13:31:14.071Z,12.10
2022-11-25T13:34:21.488Z,12.20
2022-11-25T13:37:36.867Z,12.00
2022-11-25T13:40:39.234Z,11.80
2022-11-25T13:44:05.084Z,11.70
2022-11-25T13:47:24.606Z,12.20
2022-11-25T13:50:42.002Z,12.40
2022-11-25T13:54:01.342Z,10.90
2022-11-25T13:57:12.074Z,12.10
2022-11-25T14:00:19.446Z,12.40
2022-11-25T14:03:21.023Z,12.40
2022-11-25T14:06:41.886Z,12.00
2022-11-25T14:09:46.340Z,11.90
2022-11-25T14:13:25.723Z,12.20
2022-11-25T14:16:57.096Z,11.50
2022-11-25T14:20:24.802Z,12.30
2022-11-25T14:23:50.864Z,11.60
2022-11-25T14:26:53.178Z,12.20
2022-11-25T14:30:03.670Z,12.00
2022-11-25T14:33:11.327Z,11.90
2022-11-25T14:36:17.871Z,13.70
2022-11-25T14:39:36.469Z,11.40
2022-11-25T14:42:44.084Z,11.90
2022-11-25T14:45:45.737Z,11.60
2022-11-25T14:48:54.970Z,11.60
2022-11-25T14:51:56.602Z,13.70
2022-11-25T14:54:59.788Z,11.40
2022-11-25T14:58:01.550Z,11.50
2022-11-25T15:01:08.383Z,11.70
2022-11-25T15:04:13.035Z,12.00
2022-11-25T15:07:20.477Z,11.60
2022-11-25T15:10:48.012Z,11.40
2022-11-25T15:13:59.016Z,11.20
2022-11-25T15:17:07.121Z,11.10
2022-11-25T15:20:15.124Z,11.30
2022-11-25T15:23:24.234Z,11.20
2022-11-25T15:26:29.271Z,10.70
2022-11-25T15:29:39.965Z,11.00
2022-11-25T15:32:41.518Z,11.00
2022-11-25T15:35:43.116Z,10.80
2022-11-25T15:38:46.688Z,10.70
2022-11-25T15:41:50.330Z,10.90
2022-11-25T15:44:54.339Z,10.90
2022-11-25T15:47:57.318Z,11.00
2022-11-25T15:51:06.088Z,11.00
2022-11-25T15:54:13.445Z,10.70
2022-11-25T15:57:20.115Z,12.20
2022-11-25T16:00:23.217Z,10.60
2022-11-25T16:03:24.894Z,10.50
2022-11-25T16:06:32.092Z,10.90
2022-11-25T16:09:33.667Z,10.90
2022-11-25T16:12:35.249Z,10.90
2022-11-25T16:15:48.607Z,10.90
2022-11-25T16:19:02.057Z,10.70
2022-11-25T16:22:04.118Z,12.10
2022-11-25T16:25:10.094Z,10.80
2022-11-25T16:28:22.756Z,10.80
2022-11-25T16:31:25.396Z,11.10
2022-11-25T16:34:27.626Z,10.90
2022-11-25T16:37:29.275Z,11.10
2022-11-25T16:40:31.354Z,11.00
2022-11-25T16:43:32.961Z,10.80
2022-11-25T16:46:34.603Z,10.90
2022-11-25T16:49:36.638Z,11.00
2022-11-25T16:52:38.913Z,11.10
2022-11-25T16:55:43.032Z,11.00
2022-11-25T16:58:45.424Z,11.00
2022-11-25T17:01:47.333Z,11.00
2022-11-25T17:04:49.638Z,10.80
2022-11-25T17:07:52.015Z,10.80
2022-11-25T17:10:55.017Z,10.90
2022-11-25T17:14:00.924Z,11.00
2022-11-25T17:17:05.849Z,9.50
2022-11-25T17:20:15.925Z,10.90
2022-11-25T17:23:17.735Z,10.90
2022-11-25T17:26:24.443Z,10.70
2022-11-25T17:29:35.861Z,10.90
2022-11-25T17:32:37.549Z,10.80
2022-11-25T17:35:39.112Z,10.80
2022-11-25T17:38:41.249Z,12.70
2022-11-25T17:41:46.409Z,10.80
2022-11-25T17:44:52.840Z,10.80
2022-11-25T17:47:55.726Z,11.00
2022-11-25T17:50:57.279Z,10.60
2022-11-25T17:53:58.855Z,11.00
2022-11-25T17:57:01.067Z,10.70
2022-11-25T18:00:05.047Z,10.90
2022-11-25T18:03:13.029Z,10.80
2022-11-25T18:06:14.831Z,10.80
2022-11-25T18:09:17.108Z,11.00
2022-11-25T18:12:30.006Z,12.70
2022-11-25T18:15:33.955Z,10.70
2022-11-25T18:18:35.885Z,10.40
2022-11-25T18:21:37.487Z,10.30
2022-11-25T18:24:39.337Z,10.40
2022-11-25T18:27:41.215Z,10.20
2022-11-25T18:30:43.287Z,10.40
2022-11-25T18:33:44.905Z,10.40
2022-11-25T18:36:46.499Z,10.50
2022-11-25T18:39:48.038Z,10.40
2022-11-25T18:42:53.305Z,10.30
2022-11-25T18:45:55.573Z,10.20
2022-11-25T18:48:57.412Z,10.30
2022-11-25T18:51:58.986Z,10.30
2022-11-25T18:55:00.505Z,10.30
2022-11-25T18:58:02.967Z,10.30
2022-11-25T19:01:10.922Z,10.50
2022-11-25T19:04:16.715Z,10.20
2022-11-25T19:07:18.272Z,10.40
2022-11-25T19:10:21.951Z,10.30
2022-11-25T19:13:29.907Z,9.90
2022-11-25T19:16:31.528Z,10.30
2022-11-25T19:19:33.359Z,10.30
2022-11-25T19:22:34.989Z,10.10
2022-11-25T19:25:36.692Z,10.10
2022-11-25T19:28:38.396Z,10.30
2022-11-25T19:31:40.155Z,10.20
2022-11-25T19:34:46.605Z,9.90
2022-11-25T19:37:48.425Z,10.50
2022-11-25T19:40:49.965Z,10.50
2022-11-25T19:43:51.608Z,10.50
2022-11-25T19:47:14.229Z,10.10
2022-11-25T19:50:22.081Z,10.40
2022-11-25T19:53:23.711Z,9.80
2022-11-25T19:56:27.093Z,10.30
2022-11-25T19:59:28.607Z,9.80
2022-11-25T20:02:30.313Z,9.80
2022-11-25T20:05:33.715Z,10.20
2022-11-25T20:08:35.249Z,9.90
2022-11-25T20:11:36.903Z,9.50
2022-11-25T20:14:38.771Z,10.00
2022-11-25T20:17:44.106Z,10.00
2022-11-25T20:20:55.850Z,9.80
2022-11-25T20:23:57.718Z,9.30
2022-11-25T20:26:59.316Z,9.50
2022-11-25T20:30:00.871Z,9.50
2022-11-25T20:33:02.399Z,9.50
2022-11-25T20:36:07.227Z,8.80
2022-11-25T20:39:17.946Z,10.00
2022-11-25T20:42:20.046Z,9.30
2022-11-25T20:45:23.350Z,11.70
2022-11-25T20:48:26.478Z,10.40
2022-11-25T20:51:28.124Z,7.10
2022-11-25T20:54:32.803Z,9.60
2022-11-25T20:57:36.299Z,9.00
2022-11-25T21:00:37.907Z,9.00
2022-11-25T21:03:39.735Z,9.30
2022-11-25T21:06:41.571Z,9.10
2022-11-25T21:09:43.579Z,9.00
2022-11-25T21:12:45.251Z,9.10
2022-11-25T21:15:49.148Z,9.20
2022-11-25T21:18:50.955Z,8.90
2022-11-25T21:21:52.784Z,7.70
2022-11-25T21:24:54.391Z,8.70
2022-11-25T21:27:55.915Z,8.60
2022-11-25T21:30:57.510Z,8.40
2022-11-25T21:34:01.009Z,8.70
2022-11-25T21:37:02.973Z,8.80
2022-11-25T21:40:05.644Z,8.80
2022-11-25T21:43:21.470Z,8.50
2022-11-25T21:46:25.534Z,8.90
2022-11-25T21:49:27.630Z,8.30
2022-11-25T21:52:29.303Z,8.10
2022-11-25T21:55:30.850Z,8.90
2022-11-25T21:58:32.837Z,7.90
2022-11-25T22:01:34.446Z,8.00
2022-11-25T22:04:36.370Z,8.40
2022-11-25T22:07:38.153Z,8.30
2022-11-25T22:10:42.748Z,8.30
2022-11-25T22:13:45.547Z,8.30
2022-11-25T22:16:47.228Z,10.30
2022-11-25T22:19:48.942Z,8.00
2022-11-25T22:22:50.998Z,8.20
2022-11-25T22:25:53.515Z,8.30
2022-11-25T22:28:55.480Z,8.00
2022-11-25T22:31:57.104Z,8.20
2022-11-25T22:34:58.637Z,8.10
2022-11-25T22:38:00.380Z,8.00
2022-11-25T22:41:04.170Z,8.20
2022-11-25T22:44:05.959Z,7.90
2022-11-25T22:47:15.671Z,7.70
2022-11-25T22:50:25.805Z,8.00
2022-11-25T22:53:27.708Z,7.80
2022-11-25T22:56:29.934Z,7.90
2022-11-25T22:59:31.601Z,8.00
2022-11-25T23:02:34.640Z,8.10
2022-11-25T23:05:39.249Z,7.50
2022-11-25T23:08:41.188Z,7.90
2022-11-25T23:11:43.275Z,7.80
2022-11-25T23:14:45.395Z,7.60
2022-11-25T23:17:53.347Z,7.80
2022-11-25T23:20:55.507Z,7.80
2022-11-25T23:23:57.179Z,7.90
2022-11-25T23:26:58.734Z,10.10
2022-11-25T23:30:00.270Z,7.80
2022-11-25T23:33:03.037Z,7.60
2022-11-25T23:36:10.575Z,7.80
2022-11-25T23:39:23.933Z,7.90
2022-11-25T23:42:25.472Z,8.00
2022-11-25T23:45:27.685Z,7.60
2022-11-25T23:48:30.628Z,7.80
2022-11-25T23:51:32.336Z,7.80
2022-11-25T23:54:42.344Z,7.60
2022-11-25T23:57:47.312Z,8.00
